Time,TemperatureF,DewpointF,PressureIn,WindDirection,WindDirectionDegrees,WindSpeedMPH,WindSpeedGustMPH,Humidity,HourlyPrecipIn,Conditions,Clouds,dailyrainin,SoftwareType,DateUTC
2013-04-30 00:00:00,54.4,32.3,29.48,SW,228,0.0,1.0,43,0.00,,,0.00,HR-IXPWINDi_r2_v1.2.,2013-04-30 06:00:00,
2013-04-30 00:06:00,54.2,32.7,29.48,SW,228,0.0,1.0,44,0.00,,,0.00,HR-IXPWINDi_r2_v1.2.,2013-04-30 06:06:00,
2013-04-30 00:11:00,54.3,32.8,29.48,West,264,1.0,1.0,44,0.00,,,0.00,HR-IXPWINDi_r2_v1.2.,2013-04-30 06:11:00,
2013-04-30 00:16:00,54.2,33.8,29.48,NE,36,2.0,2.0,46,0.00,,,0.00,HR-IXPWINDi_r2_v1.2.,2013-04-30 06:16:00,
2013-04-30 00:21:00,54.0,34.2,29.48,NNE,33,1.0,3.0,47,0.00,,,0.00,HR-IXPWINDi_r2_v1.2.,2013-04-30 06:21:00,
2013-04-30 00:26:00,53.7,33.9,29.48,NE,37,0.0,3.0,47,0.00,,,0.00,HR-IXPWINDi_r2_v1.2.,2013-04-30 06:26:00,
2013-04-30 00:31:00,53.4,33.6,29.48,NE,37,0.0,1.0,47,0.00,,,0.00,HR-IXPWINDi_r2_v1.2.,2013-04-30 06:31:00,
2013-04-30 00:37:00,53.3,33.6,29.48,NE,36,0.0,1.0,47,0.00,,,0.00,HR-IXPWINDi_r2_v1.2.,2013-04-30 06:37:00,
2013-04-30 00:42:00,53.3,34.1,29.48,NE,36,1.0,2.0,48,0.00,,,0.00,HR-IXPWINDi_r2_v1.2.,2013-04-30 06:42:00,
2013-04-30 00:47:00,53.2,33.5,29.47,NE,36,0.0,2.0,47,0.00,,,0.00,HR-IXPWINDi_r2_v1.2.,2013-04-30 06:47:00,
2013-04-30 00:52:00,52.9,33.7,29.48,NE,43,1.0,2.0,48,0.00,,,0.00,HR-IXPWINDi_r2_v1.2.,2013-04-30 06:52:00,
2013-04-30 00:57:00,52.8,33.6,29.48,West,269,0.0,2.0,48,0.00,,,0.00,HR-IXPWINDi_r2_v1.2.,2013-04-30 06:57:00,
2013-04-30 01:02:00,52.5,33.9,29.48,West,281,0.0,2.0,49,0.00,,,0.00,HR-IXPWINDi_r2_v1.2.,2013-04-30 07:02:00,
2013-04-30 01:07:00,52.2,33.6,29.48,NW,306,0.0,2.0,49,0.00,,,0.00,HR-IXPWINDi_r2_v1.2.,2013-04-30 07:07:00,
2013-04-30 01:12:00,51.9,33.8,29.48,NW,305,1.0,2.0,50,0.00,,,0.00,HR-IXPWINDi_r2_v1.2.,2013-04-30 07:12:00,
2013-04-30 01:17:00,51.7,33.6,29.48,West,277,1.0,2.0,50,0.00,,,0.00,HR-IXPWINDi_r2_v1.2.,2013-04-30 07:17:00,
2013-04-30 01:23:00,51.4,33.4,29.48,West,280,1.0,2.0,50,0.00,,,0.00,HR-IXPWINDi_r2_v1.2.,2013-04-30 07:23:00,
2013-04-30 01:28:00,51.4,33.4,29.48,West,278,0.0,2.0,50,0.00,,,0.00,HR-IXPWINDi_r2_v1.2.,2013-04-30 07:28:00,
2013-04-30 01:34:00,51.4,33.8,29.48,West,278,1.0,2.0,51,0.00,,,0.00,HR-IXPWINDi_r2_v1.2.,2013-04-30 07:34:00,
2013-04-30 01:39:00,51.3,33.8,29.48,West,278,1.0,2.0,51,0.00,,,0.00,HR-IXPWINDi_r2_v1.2.,2013-04-30 07:39:00,
2013-04-30 01:44:00,51.1,33.6,29.48,WNW,288,0.0,2.0,51,0.00,,,0.00,HR-IXPWINDi_r2_v1.2.,2013-04-30 07:44:00,
2013-04-30 01:49:00,50.7,33.7,29.48,WSW,245,0.0,2.0,52,0.00,,,0.00,HR-IXPWINDi_r2_v1.2.,2013-04-30 07:49:00,
2013-04-30 01:55:00,50.5,33.5,29.48,West,267,0.0,2.0,52,0.00,,,0.00,HR-IXPWINDi_r2_v1.2.,2013-04-30 07:55:00,
2013-04-30 02:00:00,50.3,33.8,29.48,West,267,1.0,2.0,53,0.00,,,0.00,HR-IXPWINDi_r2_v1.2.,2013-04-30 08:00:00,
2013-04-30 02:05:00,50.0,33.5,29.48,West,266,0.0,1.0,53,0.00,,,0.00,HR-IXPWINDi_r2_v1.2.,2013-04-30 08:05:00,
2013-04-30 02:10:00,49.8,32.9,29.47,West,267,0.0,1.0,52,0.00,,,0.00,HR-IXPWINDi_r2_v1.2.,2013-04-30 08:10:00,
2013-04-30 02:16:00,50.0,33.5,29.47,West,267,0.0,1.0,53,0.00,,,0.00,HR-IXPWINDi_r2_v1.2.,2013-04-30 08:16:00,
2013-04-30 02:21:00,50.2,33.2,29.48,West,267,0.0,1.0,52,0.00,,,0.00,HR-IXPWINDi_r2_v1.2.,2013-04-30 08:21:00,
2013-04-30 02:26:00,50.3,34.3,29.48,NNE,13,1.0,1.0,54,0.00,,,0.00,HR-IXPWINDi_r2_v1.2.,2013-04-30 08:26:00,
2013-04-30 02:31:00,50.2,34.6,29.47,NNE,13,0.0,1.0,55,0.00,,,0.00,HR-IXPWINDi_r2_v1.2.,2013-04-30 08:31:00,
2013-04-30 02:37:00,50.1,34.5,29.47,NNE,13,0.0,1.0,55,0.00,,,0.00,HR-IXPWINDi_r2_v1.2.,2013-04-30 08:37:00,
2013-04-30 02:42:00,49.9,34.3,29.47,NNE,13,0.0,1.0,55,0.00,,,0.00,HR-IXPWINDi_r2_v1.2.,2013-04-30 08:42:00,
2013-04-30 02:47:00,49.9,34.3,29.47,NNE,13,1.0,1.0,55,0.00,,,0.00,HR-IXPWINDi_r2_v1.2.,2013-04-30 08:47:00,
2013-04-30 02:52:00,49.9,34.8,29.47,NNE,13,0.0,1.0,56,0.00,,,0.00,HR-IXPWINDi_r2_v1.2.,2013-04-30 08:52:00,
2013-04-30 02:57:00,49.9,33.4,29.48,NW,305,1.0,2.0,53,0.00,,,0.00,HR-IXPWINDi_r2_v1.2.,2013-04-30 08:57:00,
2013-04-30 03:02:00,49.9,33.4,29.48,West,277,0.0,2.0,53,0.00,,,0.00,HR-IXPWINDi_r2_v1.2.,2013-04-30 09:02:00,
2013-04-30 03:08:00,49.6,33.1,29.48,West,277,0.0,2.0,53,0.00,,,0.00,HR-IXPWINDi_r2_v1.2.,2013-04-30 09:08:00,
2013-04-30 03:13:00,49.8,33.3,29.48,WNW,287,1.0,2.0,53,0.00,,,0.00,HR-IXPWINDi_r2_v1.2.,2013-04-30 09:13:00,
2013-04-30 03:18:00,49.6,33.1,29.48,West,278,0.0,2.0,53,0.00,,,0.00,HR-IXPWINDi_r2_v1.2.,2013-04-30 09:18:00,
2013-04-30 03:23:00,49.4,33.0,29.48,SW,218,1.0,4.0,53,0.00,,,0.00,HR-IXPWINDi_r2_v1.2.,2013-04-30 09:23:00,
2013-04-30 03:28:00,49.1,33.6,29.48,SW,218,0.0,4.0,55,0.00,,,0.00,HR-IXPWINDi_r2_v1.2.,2013-04-30 09:28:00,
2013-04-30 03:33:00,48.9,33.9,29.48,North,349,1.0,4.0,56,0.00,,,0.00,HR-IXPWINDi_r2_v1.2.,2013-04-30 09:33:00,
2013-04-30 03:38:00,48.8,34.2,29.48,NNW,347,1.0,2.0,57,0.00,,,0.00,HR-IXPWINDi_r2_v1.2.,2013-04-30 09:38:00,
2013-04-30 03:44:00,48.5,33.5,29.48,NNW,347,0.0,1.0,56,0.00,,,0.00,HR-IXPWINDi_r2_v1.2.,2013-04-30 09:44:00,
2013-04-30 03:49:00,48.3,33.7,29.48,NNE,33,0.0,2.0,57,0.00,,,0.00,HR-IXPWINDi_r2_v1.2.,2013-04-30 09:49:00,
2013-04-30 03:54:00,48.1,34.0,29.48,NNE,33,0.0,2.0,58,0.00,,,0.00,HR-IXPWINDi_r2_v1.2.,2013-04-30 09:54:00,
2013-04-30 04:00:00,48.0,34.3,29.48,NNE,28,1.0,3.0,59,0.00,,,0.00,HR-IXPWINDi_r2_v1.2.,2013-04-30 10:00:00,
2013-04-30 04:05:00,47.7,34.5,29.49,NE,37,1.0,3.0,60,0.00,,,0.00,HR-IXPWINDi_r2_v1.2.,2013-04-30 10:05:00,
2013-04-30 04:10:00,47.4,34.6,29.48,NE,37,1.0,2.0,61,0.00,,,0.00,HR-IXPWINDi_r2_v1.2.,2013-04-30 10:10:00,
2013-04-30 04:15:00,47.1,34.3,29.48,ENE,78,2.0,2.0,61,0.00,,,0.00,HR-IXPWINDi_r2_v1.2.,2013-04-30 10:15:00,
2013-04-30 04:20:00,46.8,33.6,29.49,SW,221,1.0,2.0,60,0.00,,,0.00,HR-IXPWINDi_r2_v1.2.,2013-04-30 10:20:00,
2013-04-30 04:25:00,46.8,33.6,29.49,South,188,1.0,2.0,60,0.00,,,0.00,HR-IXPWINDi_r2_v1.2.,2013-04-30 10:25:00,
2013-04-30 04:31:00,46.9,33.3,29.49,South,187,0.0,1.0,59,0.00,,,0.00,HR-IXPWINDi_r2_v1.2.,2013-04-30 10:31:00,
2013-04-30 04:36:00,46.8,33.2,29.49,South,188,0.0,1.0,59,0.00,,,0.00,HR-IXPWINDi_r2_v1.2.,2013-04-30 10:36:00,
2013-04-30 04:41:00,46.9,33.3,29.49,South,188,0.0,1.0,59,0.00,,,0.00,HR-IXPWINDi_r2_v1.2.,2013-04-30 10:41:00,
2013-04-30 04:46:00,46.9,33.7,29.49,East,84,0.0,2.0,60,0.00,,,0.00,HR-IXPWINDi_r2_v1.2.,2013-04-30 10:46:00,
2013-04-30 04:52:00,46.8,33.6,29.49,SE,129,0.0,2.0,60,0.00,,,0.00,HR-IXPWINDi_r2_v1.2.,2013-04-30 10:52:00,
2013-04-30 04:57:00,46.7,33.5,29.50,SE,129,1.0,1.0,60,0.00,,,0.00,HR-IXPWINDi_r2_v1.2.,2013-04-30 10:57:00,
2013-04-30 05:02:00,46.5,33.7,29.49,ESE,103,0.0,2.0,61,0.00,,,0.00,HR-IXPWINDi_r2_v1.2.,2013-04-30 11:02:00,
2013-04-30 05:07:00,46.6,33.8,29.50,West,276,1.0,3.0,61,0.00,,,0.00,HR-IXPWINDi_r2_v1.2.,2013-04-30 11:07:00,
2013-04-30 05:12:00,46.7,34.3,29.49,NNE,22,1.0,4.0,62,0.00,,,0.00,HR-IXPWINDi_r2_v1.2.,2013-04-30 11:12:00,
2013-04-30 05:18:00,46.4,34.5,29.49,NNE,22,2.0,4.0,63,0.00,,,0.00,HR-IXPWINDi_r2_v1.2.,2013-04-30 11:18:00,
2013-04-30 05:23:00,46.1,34.6,29.50,ESE,122,1.0,3.0,64,0.00,,,0.00,HR-IXPWINDi_r2_v1.2.,2013-04-30 11:23:00,
2013-04-30 05:28:00,45.9,34.4,29.49,ENE,59,2.0,3.0,64,0.00,,,0.00,HR-IXPWINDi_r2_v1.2.,2013-04-30 11:28:00,
2013-04-30 05:33:00,45.6,34.5,29.49,ENE,61,2.0,3.0,65,0.00,,,0.00,HR-IXPWINDi_r2_v1.2.,2013-04-30 11:33:00,
2013-04-30 05:38:00,45.5,34.8,29.49,ENE,61,0.0,3.0,66,0.00,,,0.00,HR-IXPWINDi_r2_v1.2.,2013-04-30 11:38:00,
2013-04-30 05:44:00,45.5,34.8,29.49,ENE,68,2.0,2.0,66,0.00,,,0.00,HR-IXPWINDi_r2_v1.2.,2013-04-30 11:44:00,
2013-04-30 05:49:00,45.3,34.6,29.50,ENE,57,0.0,2.0,66,0.00,,,0.00,HR-IXPWINDi_r2_v1.2.,2013-04-30 11:49:00,
2013-04-30 05:54:00,45.2,34.9,29.50,ENE,57,0.0,2.0,67,0.00,,,0.00,HR-IXPWINDi_r2_v1.2.,2013-04-30 11:54:00,
2013-04-30 05:59:00,45.2,34.5,29.50,ENE,57,0.0,1.0,66,0.00,,,0.00,HR-IXPWINDi_r2_v1.2.,2013-04-30 11:59:00,
2013-04-30 06:05:00,45.1,34.4,29.51,ENE,58,1.0,1.0,66,0.00,,,0.00,HR-IXPWINDi_r2_v1.2.,2013-04-30 12:05:00,
2013-04-30 06:10:00,45.5,34.8,29.51,ENE,57,0.0,1.0,66,0.00,,,0.00,HR-IXPWINDi_r2_v1.2.,2013-04-30 12:10:00,
2013-04-30 06:15:00,45.7,35.0,29.51,NNW,348,0.0,1.0,66,0.00,,,0.00,HR-IXPWINDi_r2_v1.2.,2013-04-30 12:15:00,
2013-04-30 06:20:00,45.8,35.1,29.51,NNW,348,0.0,1.0,66,0.00,,,0.00,HR-IXPWINDi_r2_v1.2.,2013-04-30 12:20:00,
2013-04-30 06:26:00,45.8,35.1,29.51,NNW,348,0.0,1.0,66,0.00,,,0.00,HR-IXPWINDi_r2_v1.2.,2013-04-30 12:26:00,
2013-04-30 06:31:00,45.7,35.0,29.51,NNW,348,0.0,0.0,66,0.00,,,0.00,HR-IXPWINDi_r2_v1.2.,2013-04-30 12:31:00,
2013-04-30 06:36:00,45.7,35.0,29.52,NNW,348,0.0,1.0,66,0.00,,,0.00,HR-IXPWINDi_r2_v1.2.,2013-04-30 12:36:00,
2013-04-30 06:41:00,45.9,35.1,29.52,NNW,348,0.0,1.0,66,0.00,,,0.00,HR-IXPWINDi_r2_v1.2.,2013-04-30 12:41:00,
2013-04-30 06:46:00,46.4,35.6,29.52,NNW,348,1.0,2.0,66,0.00,,,0.00,HR-IXPWINDi_r2_v1.2.,2013-04-30 12:46:00,
2013-04-30 06:52:00,46.6,35.0,29.52,North,354,0.0,2.0,64,0.00,,,0.00,HR-IXPWINDi_r2_v1.2.,2013-04-30 12:52:00,
2013-04-30 06:57:00,46.6,34.6,29.52,North,354,0.0,1.0,63,0.00,,,0.00,HR-IXPWINDi_r2_v1.2.,2013-04-30 12:57:00,
2013-04-30 07:02:00,47.0,35.0,29.52,North,354,0.0,1.0,63,0.00,,,0.00,HR-IXPWINDi_r2_v1.2.,2013-04-30 13:02:00,
2013-04-30 07:07:00,48.1,35.7,29.53,North,354,0.0,1.0,62,0.00,,,0.00,HR-IXPWINDi_r2_v1.2.,2013-04-30 13:07:00,
2013-04-30 07:12:00,49.6,35.8,29.53,NNE,12,1.0,1.0,59,0.00,,,0.00,HR-IXPWINDi_r2_v1.2.,2013-04-30 13:12:00,
2013-04-30 07:17:00,50.4,35.7,29.52,ENE,61,0.0,3.0,57,0.00,,,0.00,HR-IXPWINDi_r2_v1.2.,2013-04-30 13:17:00,
2013-04-30 07:23:00,51.0,34.9,29.52,East,83,0.0,3.0,54,0.00,,,0.00,HR-IXPWINDi_r2_v1.2.,2013-04-30 13:23:00,
2013-04-30 07:28:00,51.5,34.9,29.52,ENE,74,0.0,2.0,53,0.00,,,0.00,HR-IXPWINDi_r2_v1.2.,2013-04-30 13:28:00,
2013-04-30 07:33:00,52.4,35.3,29.52,ENE,74,0.0,2.0,52,0.00,,,0.00,HR-IXPWINDi_r2_v1.2.,2013-04-30 13:33:00,
2013-04-30 07:38:00,53.4,35.7,29.52,East,79,0.0,1.0,51,0.00,,,0.00,HR-IXPWINDi_r2_v1.2.,2013-04-30 13:38:00,
2013-04-30 07:43:00,54.4,36.1,29.52,East,79,0.0,1.0,50,0.00,,,0.00,HR-IXPWINDi_r2_v1.2.,2013-04-30 13:43:00,
2013-04-30 07:49:00,55.3,35.4,29.52,ENE,73,0.0,1.0,47,0.00,,,0.00,HR-IXPWINDi_r2_v1.2.,2013-04-30 13:49:00,
2013-04-30 07:54:00,56.1,35.6,29.52,East,84,1.0,1.0,46,0.00,,,0.00,HR-IXPWINDi_r2_v1.2.,2013-04-30 13:54:00,
2013-04-30 07:59:00,56.5,35.4,29.52,ENE,70,1.0,2.0,45,0.00,,,0.00,HR-IXPWINDi_r2_v1.2.,2013-04-30 13:59:00,
2013-04-30 08:04:00,57.2,35.5,29.52,NE,53,2.0,3.0,44,0.00,,,0.00,HR-IXPWINDi_r2_v1.2.,2013-04-30 14:04:00,
2013-04-30 08:10:00,57.9,34.3,29.52,ENE,72,2.0,4.0,41,0.00,,,0.00,HR-IXPWINDi_r2_v1.2.,2013-04-30 14:10:00,
2013-04-30 08:15:00,58.5,34.9,29.52,ENE,73,2.0,4.0,41,0.00,,,0.00,HR-IXPWINDi_r2_v1.2.,2013-04-30 14:15:00,
2013-04-30 08:20:00,58.8,33.2,29.52,ENE,57,0.0,3.0,38,0.00,,,0.00,HR-IXPWINDi_r2_v1.2.,2013-04-30 14:20:00,
2013-04-30 08:25:00,59.2,32.9,29.53,ENE,57,0.0,2.0,37,0.00,,,0.00,HR-IXPWINDi_r2_v1.2.,2013-04-30 14:25:00,
2013-04-30 08:30:00,59.3,32.3,29.52,SSW,203,0.0,1.0,36,0.00,,,0.00,HR-IXPWINDi_r2_v1.2.,2013-04-30 14:30:00,
2013-04-30 08:35:00,59.4,32.4,29.52,SW,214,1.0,2.0,36,0.00,,,0.00,HR-IXPWINDi_r2_v1.2.,2013-04-30 14:35:00,
2013-04-30 08:41:00,59.5,33.2,29.52,SW,226,0.0,2.0,37,0.00,,,0.00,HR-IXPWINDi_r2_v1.2.,2013-04-30 14:41:00,
2013-04-30 08:46:00,59.7,34.0,29.52,SW,226,0.0,2.0,38,0.00,,,0.00,HR-IXPWINDi_r2_v1.2.,2013-04-30 14:46:00,
2013-04-30 08:51:00,60.1,33.7,29.52,SW,226,0.0,1.0,37,0.00,,,0.00,HR-IXPWINDi_r2_v1.2.,2013-04-30 14:51:00,
2013-04-30 08:56:00,60.6,34.2,29.52,SW,226,0.0,0.0,37,0.00,,,0.00,HR-IXPWINDi_r2_v1.2.,2013-04-30 14:56:00,
2013-04-30 09:01:00,60.9,34.4,29.52,NNE,23,1.0,1.0,37,0.00,,,0.00,HR-IXPWINDi_r2_v1.2.,2013-04-30 15:01:00,
2013-04-30 09:06:00,61.0,33.1,29.53,NNE,29,0.0,2.0,35,0.00,,,0.00,HR-IXPWINDi_r2_v1.2.,2013-04-30 15:06:00,
2013-04-30 09:12:00,61.2,33.3,29.52,NNE,28,0.0,2.0,35,0.00,,,0.00,HR-IXPWINDi_r2_v1.2.,2013-04-30 15:12:00,
2013-04-30 09:17:00,61.3,35.4,29.52,WNW,288,1.0,2.0,38,0.00,,,0.00,HR-IXPWINDi_r2_v1.2.,2013-04-30 15:17:00,
2013-04-30 09:22:00,60.8,35.7,29.52,WNW,285,1.0,3.0,39,0.00,,,0.00,HR-IXPWINDi_r2_v1.2.,2013-04-30 15:22:00,
2013-04-30 09:27:00,60.6,36.1,29.52,WNW,285,2.0,4.0,40,0.00,,,0.00,HR-IXPWINDi_r2_v1.2.,2013-04-30 15:27:00,
2013-04-30 09:33:00,60.4,35.9,29.52,West,277,2.0,4.0,40,0.00,,,0.00,HR-IXPWINDi_r2_v1.2.,2013-04-30 15:33:00,
2013-04-30 09:38:00,60.6,36.1,29.52,WNW,298,2.0,3.0,40,0.00,,,0.00,HR-IXPWINDi_r2_v1.2.,2013-04-30 15:38:00,
2013-04-30 09:43:00,60.8,35.7,29.52,WNW,298,0.0,3.0,39,0.00,,,0.00,HR-IXPWINDi_r2_v1.2.,2013-04-30 15:43:00,
2013-04-30 09:48:00,61.1,35.9,29.52,WNW,300,1.0,2.0,39,0.00,,,0.00,HR-IXPWINDi_r2_v1.2.,2013-04-30 15:48:00,
2013-04-30 09:53:00,61.5,36.3,29.52,West,273,0.0,2.0,39,0.00,,,0.00,HR-IXPWINDi_r2_v1.2.,2013-04-30 15:53:00,
2013-04-30 09:58:00,61.9,37.3,29.52,West,278,1.0,2.0,40,0.00,,,0.00,HR-IXPWINDi_r2_v1.2.,2013-04-30 15:58:00,
2013-04-30 10:03:00,62.1,37.5,29.51,West,274,1.0,3.0,40,0.00,,,0.00,HR-IXPWINDi_r2_v1.2.,2013-04-30 16:03:00,
2013-04-30 10:09:00,62.4,37.7,29.51,SW,224,0.0,3.0,40,0.00,,,0.00,HR-IXPWINDi_r2_v1.2.,2013-04-30 16:09:00,
2013-04-30 10:14:00,63.1,37.1,29.51,WSW,250,0.0,2.0,38,0.00,,,0.00,HR-IXPWINDi_r2_v1.2.,2013-04-30 16:14:00,
2013-04-30 10:19:00,63.6,36.8,29.51,WNW,284,1.0,2.0,37,0.00,,,0.00,HR-IXPWINDi_r2_v1.2.,2013-04-30 16:19:00,
2013-04-30 10:24:00,63.8,37.0,29.51,WSW,255,1.0,2.0,37,0.00,,,0.00,HR-IXPWINDi_r2_v1.2.,2013-04-30 16:24:00,
2013-04-30 10:29:00,64.5,36.2,29.51,West,266,1.0,2.0,35,0.00,,,0.00,HR-IXPWINDi_r2_v1.2.,2013-04-30 16:29:00,
2013-04-30 10:35:00,65.2,35.3,29.50,WNW,302,1.0,2.0,33,0.00,,,0.00,HR-IXPWINDi_r2_v1.2.,2013-04-30 16:35:00,
2013-04-30 10:40:00,65.4,35.5,29.50,NW,313,1.0,2.0,33,0.00,,,0.00,HR-IXPWINDi_r2_v1.2.,2013-04-30 16:40:00,
2013-04-30 10:45:00,65.5,34.8,29.50,North,6,2.0,3.0,32,0.00,,,0.00,HR-IXPWINDi_r2_v1.2.,2013-04-30 16:45:00,
2013-04-30 10:50:00,66.1,32.9,29.50,NNE,21,1.0,4.0,29,0.00,,,0.00,HR-IXPWINDi_r2_v1.2.,2013-04-30 16:50:00,
2013-04-30 10:55:00,66.7,33.4,29.50,NNW,345,1.0,4.0,29,0.00,,,0.00,HR-IXPWINDi_r2_v1.2.,2013-04-30 16:55:00,
2013-04-30 11:02:00,66.6,34.2,29.50,West,276,2.0,4.0,30,0.00,,,0.00,HR-IXPWINDi_r2_v1.2.,2013-04-30 17:02:00,
2013-04-30 11:07:00,67.1,32.9,29.50,NNW,337,3.0,4.0,28,0.00,,,0.00,HR-IXPWINDi_r2_v1.2.,2013-04-30 17:07:00,
2013-04-30 11:12:00,68.0,33.7,29.50,West,265,1.0,4.0,28,0.00,,,0.00,HR-IXPWINDi_r2_v1.2.,2013-04-30 17:12:00,
2013-04-30 11:17:00,67.8,33.5,29.50,NW,321,3.0,5.0,28,0.00,,,0.00,HR-IXPWINDi_r2_v1.2.,2013-04-30 17:17:00,
2013-04-30 11:22:00,67.7,34.3,29.50,NNW,346,1.0,5.0,29,0.00,,,0.00,HR-IXPWINDi_r2_v1.2.,2013-04-30 17:22:00,
2013-04-30 11:27:00,68.1,33.7,29.50,WNW,284,2.0,5.0,28,0.00,,,0.00,HR-IXPWINDi_r2_v1.2.,2013-04-30 17:27:00,
2013-04-30 11:33:00,68.6,31.4,29.50,North,11,1.0,4.0,25,0.00,,,0.00,HR-IXPWINDi_r2_v1.2.,2013-04-30 17:33:00,
2013-04-30 11:38:00,68.9,32.6,29.50,NW,316,3.0,5.0,26,0.00,,,0.00,HR-IXPWINDi_r2_v1.2.,2013-04-30 17:38:00,
2013-04-30 11:43:00,68.8,32.5,29.50,WNW,290,4.0,6.0,26,0.00,,,0.00,HR-IXPWINDi_r2_v1.2.,2013-04-30 17:43:00,
2013-04-30 11:48:00,68.9,32.6,29.49,WNW,294,0.0,6.0,26,0.00,,,0.00,HR-IXPWINDi_r2_v1.2.,2013-04-30 17:48:00,
2013-04-30 11:53:00,69.3,32.9,29.50,WNW,284,2.0,4.0,26,0.00,,,0.00,HR-IXPWINDi_r2_v1.2.,2013-04-30 17:53:00,
2013-04-30 11:58:00,69.3,32.9,29.50,WNW,287,2.0,5.0,26,0.00,,,0.00,HR-IXPWINDi_r2_v1.2.,2013-04-30 17:58:00,
2013-04-30 12:03:00,69.4,33.0,29.49,WNW,302,1.0,5.0,26,0.00,,,0.00,HR-IXPWINDi_r2_v1.2.,2013-04-30 18:03:00,
2013-04-30 12:08:00,69.9,33.4,29.49,North,5,1.0,3.0,26,0.00,,,0.00,HR-IXPWINDi_r2_v1.2.,2013-04-30 18:08:00,
2013-04-30 12:13:00,70.5,32.0,29.49,WNW,290,2.0,5.0,24,0.00,,,0.00,HR-IXPWINDi_r2_v1.2.,2013-04-30 18:13:00,
2013-04-30 12:19:00,70.7,33.1,29.49,WNW,298,4.0,5.0,25,0.00,,,0.00,HR-IXPWINDi_r2_v1.2.,2013-04-30 18:19:00,
2013-04-30 12:24:00,70.8,33.2,29.48,NW,305,3.0,6.0,25,0.00,,,0.00,HR-IXPWINDi_r2_v1.2.,2013-04-30 18:24:00,
2013-04-30 12:29:00,70.8,33.2,29.49,WNW,286,6.0,7.0,25,0.00,,,0.00,HR-IXPWINDi_r2_v1.2.,2013-04-30 18:29:00,
2013-04-30 12:34:00,70.7,33.1,29.48,NNW,337,1.0,7.0,25,0.00,,,0.00,HR-IXPWINDi_r2_v1.2.,2013-04-30 18:34:00,
2013-04-30 12:39:00,71.5,33.8,29.48,WNW,299,2.0,7.0,25,0.00,,,0.00,HR-IXPWINDi_r2_v1.2.,2013-04-30 18:39:00,
2013-04-30 12:44:00,72.7,32.8,29.47,NE,53,2.0,4.0,23,0.00,,,0.00,HR-IXPWINDi_r2_v1.2.,2013-04-30 18:44:00,
2013-04-30 12:49:00,74.0,31.6,29.47,West,281,4.0,9.0,21,0.00,,,0.00,HR-IXPWINDi_r2_v1.2.,2013-04-30 18:49:00,
2013-04-30 12:55:00,74.9,29.9,29.47,West,269,10.0,11.0,19,0.00,,,0.00,HR-IXPWINDi_r2_v1.2.,2013-04-30 18:55:00,
2013-04-30 13:00:00,76.6,27.1,29.46,WNW,300,9.0,13.0,16,0.00,,,0.00,HR-IXPWINDi_r2_v1.2.,2013-04-30 19:00:00,
2013-04-30 13:05:00,76.9,27.3,29.46,SW,214,3.0,13.0,16,0.00,,,0.00,HR-IXPWINDi_r2_v1.2.,2013-04-30 19:05:00,
2013-04-30 13:10:00,77.0,27.4,29.46,WNW,288,5.0,12.0,16,0.00,,,0.00,HR-IXPWINDi_r2_v1.2.,2013-04-30 19:10:00,
2013-04-30 13:15:00,76.7,27.1,29.46,West,259,8.0,14.0,16,0.00,,,0.00,HR-IXPWINDi_r2_v1.2.,2013-04-30 19:15:00,
2013-04-30 13:20:00,76.9,25.7,29.45,West,274,7.0,14.0,15,0.00,,,0.00,HR-IXPWINDi_r2_v1.2.,2013-04-30 19:20:00,
2013-04-30 13:25:00,77.2,27.5,29.45,WNW,290,7.0,14.0,16,0.00,,,0.00,HR-IXPWINDi_r2_v1.2.,2013-04-30 19:25:00,
2013-04-30 13:30:00,77.1,25.9,29.45,West,267,8.0,14.0,15,0.00,,,0.00,HR-IXPWINDi_r2_v1.2.,2013-04-30 19:30:00,
2013-04-30 13:35:00,77.4,26.1,29.45,WNW,293,8.0,13.0,15,0.00,,,0.00,HR-IXPWINDi_r2_v1.2.,2013-04-30 19:35:00,
2013-04-30 13:41:00,77.6,26.3,29.45,West,273,14.0,15.0,15,0.00,,,0.00,HR-IXPWINDi_r2_v1.2.,2013-04-30 19:41:00,
2013-04-30 13:46:00,77.5,26.2,29.44,SW,215,5.0,15.0,15,0.00,,,0.00,HR-IXPWINDi_r2_v1.2.,2013-04-30 19:46:00,
2013-04-30 13:51:00,78.5,27.0,29.44,West,277,6.0,15.0,15,0.00,,,0.00,HR-IXPWINDi_r2_v1.2.,2013-04-30 19:51:00,
2013-04-30 13:56:00,78.7,25.5,29.44,West,278,8.0,14.0,14,0.00,,,0.00,HR-IXPWINDi_r2_v1.2.,2013-04-30 19:56:00,
2013-04-30 14:01:00,79.0,24.0,29.44,WNW,287,10.0,19.0,13,0.00,,,0.00,HR-IXPWINDi_r2_v1.2.,2013-04-30 20:01:00,
2013-04-30 14:06:00,79.9,26.5,29.44,SW,215,3.0,19.0,14,0.00,,,0.00,HR-IXPWINDi_r2_v1.2.,2013-04-30 20:06:00,
2013-04-30 14:12:00,80.7,23.4,29.44,West,278,5.0,19.0,12,0.00,,,0.00,HR-IXPWINDi_r2_v1.2.,2013-04-30 20:12:00,
2013-04-30 14:17:00,80.7,25.3,29.44,West,278,13.0,20.0,13,0.00,,,0.00,HR-IXPWINDi_r2_v1.2.,2013-04-30 20:17:00,
2013-04-30 14:22:00,80.7,25.3,29.44,West,280,15.0,21.0,13,0.00,,,0.00,HR-IXPWINDi_r2_v1.2.,2013-04-30 20:22:00,
2013-04-30 14:27:00,81.3,23.9,29.43,SW,224,6.0,21.0,12,0.00,,,0.00,HR-IXPWINDi_r2_v1.2.,2013-04-30 20:27:00,
2013-04-30 14:32:00,82.1,24.5,29.43,WSW,243,9.0,23.0,12,0.00,,,0.00,HR-IXPWINDi_r2_v1.2.,2013-04-30 20:32:00,
2013-04-30 14:37:00,82.1,22.4,29.43,SW,233,4.0,23.0,11,0.00,,,0.00,HR-IXPWINDi_r2_v1.2.,2013-04-30 20:37:00,
2013-04-30 14:43:00,81.4,21.9,29.43,WSW,241,11.0,23.0,11,0.00,,,0.00,HR-IXPWINDi_r2_v1.2.,2013-04-30 20:43:00,
2013-04-30 14:48:00,81.2,23.8,29.43,WSW,240,5.0,23.0,12,0.00,,,0.00,HR-IXPWINDi_r2_v1.2.,2013-04-30 20:48:00,
2013-04-30 14:53:00,81.8,24.3,29.43,WNW,283,6.0,23.0,12,0.00,,,0.00,HR-IXPWINDi_r2_v1.2.,2013-04-30 20:53:00,
2013-04-30 14:58:00,82.3,22.6,29.43,SW,235,14.0,21.0,11,0.00,,,0.00,HR-IXPWINDi_r2_v1.2.,2013-04-30 20:58:00,
2013-04-30 15:03:00,81.7,24.2,29.43,WSW,253,16.0,21.0,12,0.00,,,0.00,HR-IXPWINDi_r2_v1.2.,2013-04-30 21:03:00,
2013-04-30 15:08:00,81.6,24.1,29.42,SW,217,6.0,23.0,12,0.00,,,0.00,HR-IXPWINDi_r2_v1.2.,2013-04-30 21:08:00,
2013-04-30 15:13:00,82.4,22.7,29.42,West,274,8.0,23.0,11,0.00,,,0.00,HR-IXPWINDi_r2_v1.2.,2013-04-30 21:13:00,
2013-04-30 15:18:00,82.4,24.7,29.42,WNW,284,22.0,22.0,12,0.00,,,0.00,HR-IXPWINDi_r2_v1.2.,2013-04-30 21:18:00,
2013-04-30 15:24:00,82.1,22.4,29.41,WNW,285,8.0,30.0,11,0.00,,,0.00,HR-IXPWINDi_r2_v1.2.,2013-04-30 21:24:00,
2013-04-30 15:29:00,82.0,22.3,29.41,SW,235,10.0,30.0,11,0.00,,,0.00,HR-IXPWINDi_r2_v1.2.,2013-04-30 21:29:00,
2013-04-30 15:34:00,82.3,22.6,29.41,SW,229,6.0,22.0,11,0.00,,,0.00,HR-IXPWINDi_r2_v1.2.,2013-04-30 21:34:00,
2013-04-30 15:39:00,82.8,23.0,29.41,WSW,240,18.0,22.0,11,0.00,,,0.00,HR-IXPWINDi_r2_v1.2.,2013-04-30 21:39:00,
2013-04-30 15:44:00,82.1,22.4,29.41,WNW,284,10.0,20.0,11,0.00,,,0.00,HR-IXPWINDi_r2_v1.2.,2013-04-30 21:44:00,
2013-04-30 15:50:00,81.3,21.8,29.40,WNW,302,18.0,20.0,11,0.00,,,0.00,HR-IXPWINDi_r2_v1.2.,2013-04-30 21:50:00,
2013-04-30 15:55:00,82.0,22.3,29.40,SW,232,9.0,26.0,11,0.00,,,0.00,HR-IXPWINDi_r2_v1.2.,2013-04-30 21:55:00,
2013-04-30 16:00:00,82.8,23.0,29.40,SW,233,8.0,26.0,11,0.00,,,0.00,HR-IXPWINDi_r2_v1.2.,2013-04-30 22:00:00,
2013-04-30 16:05:00,83.0,23.1,29.40,West,278,7.0,17.0,11,0.00,,,0.00,HR-IXPWINDi_r2_v1.2.,2013-04-30 22:05:00,
2013-04-30 16:11:00,83.2,23.3,29.39,WNW,285,13.0,22.0,11,0.00,,,0.00,HR-IXPWINDi_r2_v1.2.,2013-04-30 22:11:00,
2013-04-30 16:16:00,82.4,22.7,29.38,West,270,9.0,28.0,11,0.00,,,0.00,HR-IXPWINDi_r2_v1.2.,2013-04-30 22:16:00,
2013-04-30 16:21:00,83.1,23.2,29.39,SSW,207,5.0,28.0,11,0.00,,,0.00,HR-IXPWINDi_r2_v1.2.,2013-04-30 22:21:00,
2013-04-30 16:26:00,83.3,23.3,29.38,West,281,7.0,20.0,11,0.00,,,0.00,HR-IXPWINDi_r2_v1.2.,2013-04-30 22:26:00,
2013-04-30 16:31:00,84.1,24.0,29.38,West,259,5.0,20.0,11,0.00,,,0.00,HR-IXPWINDi_r2_v1.2.,2013-04-30 22:31:00,
2013-04-30 16:37:00,84.4,24.2,29.38,WNW,284,16.0,20.0,11,0.00,,,0.00,HR-IXPWINDi_r2_v1.2.,2013-04-30 22:37:00,
2013-04-30 16:42:00,83.5,21.2,29.38,WSW,253,9.0,24.0,10,0.00,,,0.00,HR-IXPWINDi_r2_v1.2.,2013-04-30 22:42:00,
2013-04-30 16:47:00,83.3,23.3,29.38,SSW,208,4.0,24.0,11,0.00,,,0.00,HR-IXPWINDi_r2_v1.2.,2013-04-30 22:47:00,
2013-04-30 16:52:00,83.7,25.7,29.37,WNW,291,5.0,23.0,12,0.00,,,0.00,HR-IXPWINDi_r2_v1.2.,2013-04-30 22:52:00,
2013-04-30 16:57:00,84.1,26.0,29.37,SW,235,16.0,19.0,12,0.00,,,0.00,HR-IXPWINDi_r2_v1.2.,2013-04-30 22:57:00,
2013-04-30 17:03:00,83.0,25.2,29.37,WSW,249,6.0,25.0,12,0.00,,,0.00,HR-IXPWINDi_r2_v1.2.,2013-04-30 23:03:00,
2013-04-30 17:08:00,82.6,24.9,29.38,SW,235,17.0,25.0,12,0.00,,,0.00,HR-IXPWINDi_r2_v1.2.,2013-04-30 23:08:00,
2013-04-30 17:13:00,82.1,24.5,29.38,SW,225,10.0,23.0,12,0.00,,,0.00,HR-IXPWINDi_r2_v1.2.,2013-04-30 23:13:00,
2013-04-30 17:18:00,82.0,24.4,29.38,SW,217,8.0,23.0,12,0.00,,,0.00,HR-IXPWINDi_r2_v1.2.,2013-04-30 23:18:00,
2013-04-30 17:23:00,81.9,24.3,29.38,WSW,255,5.0,18.0,12,0.00,,,0.00,HR-IXPWINDi_r2_v1.2.,2013-04-30 23:23:00,
2013-04-30 17:29:00,82.4,24.7,29.37,WSW,245,9.0,18.0,12,0.00,,,0.00,HR-IXPWINDi_r2_v1.2.,2013-04-30 23:29:00,
2013-04-30 17:34:00,82.4,24.7,29.38,WSW,243,6.0,21.0,12,0.00,,,0.00,HR-IXPWINDi_r2_v1.2.,2013-04-30 23:34:00,
2013-04-30 17:39:00,82.6,26.8,29.38,WSW,243,6.0,21.0,13,0.00,,,0.00,HR-IXPWINDi_r2_v1.2.,2013-04-30 23:39:00,
2013-04-30 17:44:00,82.6,24.9,29.37,WSW,250,6.0,21.0,12,0.00,,,0.00,HR-IXPWINDi_r2_v1.2.,2013-04-30 23:44:00,
2013-04-30 17:49:00,83.0,25.2,29.37,WNW,286,12.0,19.0,12,0.00,,,0.00,HR-IXPWINDi_r2_v1.2.,2013-04-30 23:49:00,
2013-04-30 17:55:00,82.6,22.8,29.38,West,263,12.0,20.0,11,0.00,,,0.00,HR-IXPWINDi_r2_v1.2.,2013-04-30 23:55:00,
2013-04-30 18:00:00,81.9,24.3,29.38,West,271,10.0,20.0,12,0.00,,,0.00,HR-IXPWINDi_r2_v1.2.,2013-05-01 00:00:00,
2013-04-30 18:05:00,80.8,23.5,29.38,WNW,290,13.0,21.0,12,0.00,,,0.00,HR-IXPWINDi_r2_v1.2.,2013-05-01 00:05:00,
2013-04-30 18:10:00,79.9,22.8,29.38,West,278,7.0,22.0,12,0.00,,,0.00,HR-IXPWINDi_r2_v1.2.,2013-05-01 00:10:00,
2013-04-30 18:16:00,79.6,24.5,29.39,West,278,9.0,22.0,13,0.00,,,0.00,HR-IXPWINDi_r2_v1.2.,2013-05-01 00:16:00,
2013-04-30 18:21:00,79.5,24.4,29.39,WNW,284,13.0,22.0,13,0.00,,,0.00,HR-IXPWINDi_r2_v1.2.,2013-05-01 00:21:00,
2013-04-30 18:26:00,79.3,24.2,29.38,West,271,10.0,15.0,13,0.00,,,0.00,HR-IXPWINDi_r2_v1.2.,2013-05-01 00:26:00,
2013-04-30 18:31:00,79.2,24.1,29.39,WNW,290,14.0,14.0,13,0.00,,,0.00,HR-IXPWINDi_r2_v1.2.,2013-05-01 00:31:00,
2013-04-30 18:36:00,79.0,24.0,29.39,NW,316,4.0,14.0,13,0.00,,,0.00,HR-IXPWINDi_r2_v1.2.,2013-05-01 00:36:00,
2013-04-30 18:41:00,77.1,25.9,29.40,NNW,327,4.0,16.0,15,0.00,,,0.00,HR-IXPWINDi_r2_v1.2.,2013-05-01 00:41:00,
2013-04-30 18:46:00,75.5,27.6,29.40,WNW,300,5.0,16.0,17,0.00,,,0.00,HR-IXPWINDi_r2_v1.2.,2013-05-01 00:46:00,
2013-04-30 18:52:00,74.6,28.3,29.40,NNW,330,3.0,13.0,18,0.00,,,0.00,HR-IXPWINDi_r2_v1.2.,2013-05-01 00:52:00,
2013-04-30 18:57:00,74.0,27.8,29.40,North,359,8.0,14.0,18,0.00,,,0.00,HR-IXPWINDi_r2_v1.2.,2013-05-01 00:57:00,
2013-04-30 19:02:00,73.5,28.7,29.40,North,1,6.0,15.0,19,0.00,,,0.00,HR-IXPWINDi_r2_v1.2.,2013-05-01 01:02:00,
2013-04-30 19:08:00,73.2,28.5,29.40,NNE,14,6.0,15.0,19,0.00,,,0.00,HR-IXPWINDi_r2_v1.2.,2013-05-01 01:08:00,
2013-04-30 19:13:00,73.0,28.3,29.40,NNE,26,7.0,13.0,19,0.00,,,0.00,HR-IXPWINDi_r2_v1.2.,2013-05-01 01:13:00,
2013-04-30 19:18:00,72.8,28.1,29.40,NW,325,5.0,10.0,19,0.00,,,0.00,HR-IXPWINDi_r2_v1.2.,2013-05-01 01:18:00,
2013-04-30 19:23:00,72.7,28.1,29.41,WNW,300,4.0,10.0,19,0.00,,,0.00,HR-IXPWINDi_r2_v1.2.,2013-05-01 01:23:00,
2013-04-30 19:28:00,72.6,29.2,29.41,WNW,284,5.0,9.0,20,0.00,,,0.00,HR-IXPWINDi_r2_v1.2.,2013-05-01 01:28:00,
2013-04-30 19:34:00,72.2,28.9,29.41,West,270,4.0,9.0,20,0.00,,,0.00,HR-IXPWINDi_r2_v1.2.,2013-05-01 01:34:00,
2013-04-30 19:39:00,72.0,29.9,29.41,WSW,253,1.0,8.0,21,0.00,,,0.00,HR-IXPWINDi_r2_v1.2.,2013-05-01 01:39:00,
2013-04-30 19:44:00,71.5,30.7,29.42,SW,232,5.0,6.0,22,0.00,,,0.00,HR-IXPWINDi_r2_v1.2.,2013-05-01 01:44:00,
2013-04-30 19:49:00,71.2,29.3,29.42,West,275,5.0,7.0,21,0.00,,,0.00,HR-IXPWINDi_r2_v1.2.,2013-05-01 01:49:00,
2013-04-30 19:54:00,71.2,29.3,29.42,West,281,3.0,8.0,21,0.00,,,0.00,HR-IXPWINDi_r2_v1.2.,2013-05-01 01:54:00,
2013-04-30 19:59:00,71.2,29.3,29.42,WNW,286,5.0,8.0,21,0.00,,,0.00,HR-IXPWINDi_r2_v1.2.,2013-05-01 01:59:00,
2013-04-30 20:05:00,71.2,29.3,29.43,WNW,292,7.0,8.0,21,0.00,,,0.00,HR-IXPWINDi_r2_v1.2.,2013-05-01 02:05:00,
2013-04-30 20:10:00,70.9,29.0,29.43,WNW,293,4.0,8.0,21,0.00,,,0.00,HR-IXPWINDi_r2_v1.2.,2013-05-01 02:10:00,
2013-04-30 20:15:00,70.5,29.8,29.43,West,272,3.0,8.0,22,0.00,,,0.00,HR-IXPWINDi_r2_v1.2.,2013-05-01 02:15:00,
2013-04-30 20:20:00,70.1,30.6,29.43,West,274,3.0,8.0,23,0.00,,,0.00,HR-IXPWINDi_r2_v1.2.,2013-05-01 02:20:00,
2013-04-30 20:25:00,69.6,30.2,29.44,WNW,291,6.0,6.0,23,0.00,,,0.00,HR-IXPWINDi_r2_v1.2.,2013-05-01 02:25:00,
2013-04-30 20:31:00,69.2,30.9,29.45,WNW,288,8.0,9.0,24,0.00,,,0.00,HR-IXPWINDi_r2_v1.2.,2013-05-01 02:31:00,
2013-04-30 20:36:00,68.8,30.5,29.45,WNW,300,7.0,9.0,24,0.00,,,0.00,HR-IXPWINDi_r2_v1.2.,2013-05-01 02:36:00,
2013-04-30 20:41:00,68.7,30.4,29.45,WNW,300,4.0,11.0,24,0.00,,,0.00,HR-IXPWINDi_r2_v1.2.,2013-05-01 02:41:00,
2013-04-30 20:46:00,68.8,30.5,29.46,NW,309,4.0,11.0,24,0.00,,,0.00,HR-IXPWINDi_r2_v1.2.,2013-05-01 02:46:00,
2013-04-30 20:51:00,68.7,30.4,29.46,WNW,290,2.0,9.0,24,0.00,,,0.00,HR-IXPWINDi_r2_v1.2.,2013-05-01 02:51:00,
2013-04-30 20:57:00,68.8,30.5,29.46,WNW,285,3.0,7.0,24,0.00,,,0.00,HR-IXPWINDi_r2_v1.2.,2013-05-01 02:57:00,
2013-04-30 21:02:00,68.6,30.4,29.48,West,271,5.0,8.0,24,0.00,,,0.00,HR-IXPWINDi_r2_v1.2.,2013-05-01 03:02:00,
2013-04-30 21:07:00,68.3,31.1,29.48,WSW,250,6.0,11.0,25,0.00,,,0.00,HR-IXPWINDi_r2_v1.2.,2013-05-01 03:07:00,
2013-04-30 21:12:00,68.1,30.9,29.49,WSW,240,7.0,13.0,25,0.00,,,0.00,HR-IXPWINDi_r2_v1.2.,2013-05-01 03:12:00,
2013-04-30 21:17:00,68.1,30.9,29.50,West,278,7.0,13.0,25,0.00,,,0.00,HR-IXPWINDi_r2_v1.2.,2013-05-01 03:17:00,
2013-04-30 21:22:00,68.0,30.9,29.49,WNW,302,8.0,15.0,25,0.00,,,0.00,HR-IXPWINDi_r2_v1.2.,2013-05-01 03:22:00,
2013-04-30 21:27:00,67.8,31.7,29.50,NE,43,9.0,17.0,26,0.00,,,0.00,HR-IXPWINDi_r2_v1.2.,2013-05-01 03:27:00,
2013-04-30 21:32:00,68.2,31.0,29.50,NNE,23,7.0,20.0,25,0.00,,,0.00,HR-IXPWINDi_r2_v1.2.,2013-05-01 03:32:00,
2013-04-30 21:38:00,68.2,34.7,29.51,North,5,17.0,20.0,29,0.00,,,0.00,HR-IXPWINDi_r2_v1.2.,2013-05-01 03:38:00,
2013-04-30 21:43:00,68.2,34.7,29.51,NE,56,11.0,20.0,29,0.00,,,0.00,HR-IXPWINDi_r2_v1.2.,2013-05-01 03:43:00,
2013-04-30 21:48:00,67.3,38.7,29.54,NNW,330,7.0,27.0,35,0.00,,,0.00,HR-IXPWINDi_r2_v1.2.,2013-05-01 03:48:00,
2013-04-30 21:53:00,65.8,38.1,29.54,WNW,293,10.0,27.0,36,0.00,,,0.00,HR-IXPWINDi_r2_v1.2.,2013-05-01 03:53:00,
2013-04-30 21:58:00,64.9,37.3,29.55,NW,323,7.0,20.0,36,0.00,,,0.00,HR-IXPWINDi_r2_v1.2.,2013-05-01 03:58:00,
2013-04-30 22:01:00,64.9,37.3,29.55,NW,305,4.0,20.0,36,0.00,,,0.00,HR-IXPWINDi_r2_v1.2.,2013-05-01 04:01:00,
2013-04-30 22:06:00,64.4,39.5,29.56,NNE,18,10.0,16.0,40,0.00,,,0.00,HR-IXPWINDi_r2_v1.2.,2013-05-01 04:06:00,
2013-04-30 22:11:00,63.3,39.8,29.56,NE,56,17.0,27.0,42,0.00,,,0.00,HR-IXPWINDi_r2_v1.2.,2013-05-01 04:11:00,
2013-04-30 22:16:00,60.5,41.7,29.58,NNE,18,9.0,27.0,50,0.00,,,0.00,HR-IXPWINDi_r2_v1.2.,2013-05-01 04:16:00,
2013-04-30 22:21:00,58.5,40.9,29.59,North,355,19.0,29.0,52,0.00,,,0.00,HR-IXPWINDi_r2_v1.2.,2013-05-01 04:21:00,
2013-04-30 22:26:00,56.7,42.0,29.60,NNE,23,13.0,29.0,58,0.00,,,0.00,HR-IXPWINDi_r2_v1.2.,2013-05-01 04:26:00,
2013-04-30 22:31:00,55.6,41.9,29.61,NE,36,4.0,25.0,60,0.00,,,0.00,HR-IXPWINDi_r2_v1.2.,2013-05-01 04:31:00,
2013-04-30 22:37:00,54.9,42.1,29.62,North,1,10.0,22.0,62,0.00,,,0.00,HR-IXPWINDi_r2_v1.2.,2013-05-01 04:37:00,
2013-04-30 22:42:00,54.2,41.8,29.64,NNW,335,10.0,23.0,63,0.00,,,0.00,HR-IXPWINDi_r2_v1.2.,2013-05-01 04:42:00,
2013-04-30 22:47:00,53.7,41.8,29.64,NNE,28,11.0,23.0,64,0.00,,,0.01,HR-IXPWINDi_r2_v1.2.,2013-05-01 04:47:00,
2013-04-30 22:52:00,53.5,42.4,29.64,NNW,339,9.0,18.0,66,0.00,,,0.01,HR-IXPWINDi_r2_v1.2.,2013-05-01 04:52:00,
2013-04-30 22:57:00,53.0,42.3,29.67,WNW,291,4.0,18.0,67,0.00,,,0.01,HR-IXPWINDi_r2_v1.2.,2013-05-01 04:57:00,
2013-04-30 23:02:00,52.5,42.2,29.67,NNE,28,4.0,14.0,68,0.00,,,0.01,HR-IXPWINDi_r2_v1.2.,2013-05-01 05:02:00,
2013-04-30 23:07:00,52.4,41.7,29.67,NW,305,6.0,17.0,67,0.00,,,0.01,HR-IXPWINDi_r2_v1.2.,2013-05-01 05:07:00,
2013-04-30 23:13:00,52.4,40.9,29.68,NNE,16,17.0,18.0,65,0.00,,,0.01,HR-IXPWINDi_r2_v1.2.,2013-05-01 05:13:00,
2013-04-30 23:18:00,52.2,41.1,29.70,NW,309,12.0,18.0,66,0.00,,,0.01,HR-IXPWINDi_r2_v1.2.,2013-05-01 05:18:00,
2013-04-30 23:23:00,51.5,41.2,29.70,West,276,13.0,22.0,68,0.00,,,0.01,HR-IXPWINDi_r2_v1.2.,2013-05-01 05:23:00,
2013-04-30 23:28:00,51.0,41.1,29.70,NNW,339,10.0,22.0,69,0.00,,,0.01,HR-IXPWINDi_r2_v1.2.,2013-05-01 05:28:00,
2013-04-30 23:33:00,50.8,40.9,29.71,WNW,302,5.0,17.0,69,0.00,,,0.01,HR-IXPWINDi_r2_v1.2.,2013-05-01 05:33:00,
2013-04-30 23:38:00,50.6,41.5,29.73,WNW,291,7.0,14.0,71,0.00,,,0.01,HR-IXPWINDi_r2_v1.2.,2013-05-01 05:38:00,
2013-04-30 23:44:00,50.2,41.1,29.74,WNW,296,11.0,16.0,71,0.00,,,0.01,HR-IXPWINDi_r2_v1.2.,2013-05-01 05:44:00,
2013-04-30 23:49:00,49.9,41.2,29.76,WNW,292,12.0,17.0,72,0.00,,,0.01,HR-IXPWINDi_r2_v1.2.,2013-05-01 05:49:00,
2013-04-30 23:54:00,49.5,41.2,29.77,WNW,287,9.0,18.0,73,0.00,,,0.01,HR-IXPWINDi_r2_v1.2.,2013-05-01 05:54:00,
2013-04-30 23:59:00,48.9,39.9,29.78,NNW,338,8.0,21.0,71,0.00,,,0.01,HR-IXPWINDi_r2_v1.2.,2013-05-01 05:59:00,